Time;durP1;ratioP1;P1;durP2;ratioP2;P2;SDS_P1;SDS_P2;PMS_P1;PMS_P2;Temp;Humidity;BMP_temperature;BMP_pressure;BME280_temperature;BME280_humidity;BME280_pressure;Samples;Min_cycle;Max_cycle;Signal;HPM_P1;HPM_P2
2022/04/24 00:00:42;;;;;;;17.63;13.90;;;;;;;8.82;70.73;98697.19;5074867;28;20071;-82
2022/04/24 00:03:07;;;;;;;16.98;13.90;;;;;;;8.86;70.97;98708.25;5055631;28;20025;-82
2022/04/24 00:05:32;;;;;;;18.42;14.02;;;;;;;8.78;70.97;98690.47;5074761;28;20472;-82
2022/04/24 00:07:58;;;;;;;17.27;13.57;;;;;;;8.84;70.36;98695.31;5056548;28;20024;-82
2022/04/24 00:10:23;;;;;;;15.82;12.10;;;;;;;8.81;70.40;98692.09;5074513;28;20514;-82
2022/04/24 00:12:49;;;;;;;15.80;11.88;;;;;;;8.72;69.91;98672.63;5056413;28;20052;-82
2022/04/24 00:15:15;;;;;;;12.70;10.27;;;;;;;8.85;70.07;98696.16;5074200;28;20028;-82
2022/04/24 00:17:41;;;;;;;13.95;11.77;;;;;;;8.79;69.48;98681.75;5074270;28;20024;-82
2022/04/24 00:20:07;;;;;;;13.93;10.90;;;;;;;8.87;68.54;98678.75;5056192;28;20074;-82
2022/04/24 00:22:33;;;;;;;12.27;10.90;;;;;;;8.84;68.44;98676.31;5074437;28;20476;-82
2022/04/24 00:24:58;;;;;;;12.70;10.90;;;;;;;8.85;68.25;98665.00;5074043;28;20086;-82
2022/04/24 00:27:23;;;;;;;14.07;10.77;;;;;;;8.92;68.05;98663.75;5074140;28;20067;-82
2022/04/24 00:29:49;;;;;;;13.85;10.98;;;;;;;8.89;67.99;98671.69;5056040;28;20024;-82
2022/04/24 00:32:14;;;;;;;24.90;14.63;;;;;;;8.87;67.78;98669.19;5055844;28;20020;-82
2022/04/24 00:34:41;;;;;;;15.02;12.15;;;;;;;8.81;67.65;98663.53;5056027;28;20028;-82
2022/04/24 00:37:06;;;;;;;15.98;11.77;;;;;;;8.83;67.83;98667.69;5055707;28;20105;-82
2022/04/24 00:39:32;;;;;;;16.67;13.23;;;;;;;8.76;68.06;98671.53;5073938;28;20399;-82
2022/04/24 00:41:57;;;;;;;19.08;13.55;;;;;;;8.60;68.56;98650.78;5073633;28;20017;-82
2022/04/24 00:44:23;;;;;;;17.52;13.30;;;;;;;8.65;68.67;98666.13;5073797;28;20035;-82
2022/04/24 00:46:56;;;;;;;18.13;13.60;;;;;;;8.58;69.39;98668.19;5055653;28;20025;-82
2022/04/24 00:49:22;;;;;;;18.30;14.25;;;;;;;8.50;69.73;98658.22;5055905;28;20081;-82
2022/04/24 00:51:48;;;;;;;17.42;13.90;;;;;;;8.46;70.10;98663.66;5073771;28;20146;-82
2022/04/24 00:54:13;;;;;;;17.23;14.52;;;;;;;8.36;70.28;98645.13;5055362;28;20111;-82
2022/04/24 00:56:41;;;;;;;16.52;13.75;;;;;;;8.34;70.77;98652.16;5073652;28;20036;-82
2022/04/24 00:59:08;;;;;;;18.80;14.63;;;;;;;8.25;70.70;98645.69;5073267;28;20047;-82
2022/04/24 01:01:35;;;;;;;18.48;14.02;;;;;;;8.27;70.82;98643.03;5073687;28;20016;-82
2022/04/24 01:04:02;;;;;;;15.95;13.40;;;;;;;8.26;71.05;98641.38;5073402;28;20047;-82
2022/04/24 01:06:31;;;;;;;19.17;14.23;;;;;;;8.33;70.47;98645.28;5073358;28;20025;-82
2022/04/24 01:09:10;;;;;;;16.25;13.18;;;;;;;8.37;70.12;98646.84;5073048;28;20032;-82
2022/04/24 01:11:35;;;;;;;14.35;12.85;;;;;;;8.38;69.58;98652.84;5073496;28;20048;-82
2022/04/24 01:14:01;;;;;;;15.95;12.35;;;;;;;8.39;69.22;98645.00;5054216;28;20123;-82
2022/04/24 01:16:26;;;;;;;14.70;13.10;;;;;;;8.31;69.81;98641.94;5073365;28;20115;-81
2022/04/24 01:18:52;;;;;;;13.63;11.88;;;;;;;8.35;69.56;98643.47;5073434;28;20075;-82
2022/04/24 01:21:17;;;;;;;15.98;13.10;;;;;;;8.29;69.81;98636.00;5054937;28;20033;-82
2022/04/24 01:23:43;;;;;;;14.88;12.15;;;;;;;8.25;70.58;98634.47;5055092;28;20028;-82
2022/04/24 01:26:08;;;;;;;14.50;12.77;;;;;;;8.28;70.47;98641.28;5072715;28;20060;-82
2022/04/24 01:28:34;;;;;;;16.17;12.52;;;;;;;8.19;70.78;98627.88;5073135;28;20115;-82
2022/04/24 01:30:59;;;;;;;13.77;12.27;;;;;;;8.27;71.16;98632.66;5072841;28;20040;-82
2022/04/24 01:33:27;;;;;;;15.70;12.23;;;;;;;8.23;70.64;98623.38;5054960;28;20433;-82
2022/04/24 01:35:52;;;;;;;13.98;12.02;;;;;;;8.32;70.63;98633.25;5054843;28;20119;-82
2022/04/24 01:38:17;;;;;;;14.88;11.90;;;;;;;8.31;70.40;98618.59;5072461;28;20107;-82
2022/04/24 01:40:43;;;;;;;17.83;12.18;;;;;;;8.32;70.23;98625.47;5072603;28;20028;-82
2022/04/24 01:43:08;;;;;;;17.65;11.85;;;;;;;8.41;70.31;98625.00;5072439;28;20100;-82
2022/04/24 01:45:34;;;;;;;13.90;11.70;;;;;;;8.40;70.17;98625.91;5072701;28;20086;-82
2022/04/24 01:47:59;;;;;;;15.30;12.18;;;;;;;8.42;70.83;98631.00;5072414;28;20033;-81
2022/04/24 01:50:24;;;;;;;15.40;12.60;;;;;;;8.37;71.14;98620.88;5072545;28;20468;-82
2022/04/24 01:52:50;;;;;;;16.70;13.18;;;;;;;8.31;71.65;98610.81;5072746;28;20028;-82
2022/04/24 01:55:15;;;;;;;16.10;13.38;;;;;;;8.32;71.81;98620.28;5072173;28;20465;-82
2022/04/24 01:57:40;;;;;;;14.95;12.30;;;;;;;8.24;71.97;98605.13;5054327;28;20030;-82
2022/04/24 02:00:07;;;;;;;17.65;13.20;;;;;;;8.35;71.88;98627.91;5072534;28;20037;-82
2022/04/24 02:02:32;;;;;;;14.75;12.45;;;;;;;8.37;71.75;98620.06;5072371;28;20043;-82
2022/04/24 02:04:57;;;;;;;17.48;13.55;;;;;;;8.36;72.00;98621.78;5054135;28;20608;-82
2022/04/24 02:07:23;;;;;;;20.33;14.25;;;;;;;8.43;72.29;98627.53;5072313;28;20051;-82
2022/04/24 02:09:49;;;;;;;16.33;14.57;;;;;;;8.42;72.34;98631.00;5054106;28;20056;-82
2022/04/24 02:12:14;;;;;;;19.65;14.23;;;;;;;8.32;72.63;98607.31;5071921;28;20510;-82
2022/04/24 02:14:39;;;;;;;16.52;14.05;;;;;;;8.28;72.75;98603.19;5072179;28;20494;-82
2022/04/24 02:17:05;;;;;;;16.95;13.60;;;;;;;8.28;72.89;98610.97;5071947;28;20029;-82
2022/04/24 02:19:30;;;;;;;15.95;13.32;;;;;;;8.25;73.27;98596.41;5072175;28;20107;-82
2022/04/24 02:21:56;;;;;;;16.85;13.43;;;;;;;8.21;73.61;98605.28;5054113;28;20025;-82
2022/04/24 02:24:21;;;;;;;15.90;14.23;;;;;;;8.15;73.52;98597.81;5053756;28;20491;-82
2022/04/24 02:26:46;;;;;;;15.57;13.80;;;;;;;8.10;74.02;98609.38;5053490;28;20159;-82
2022/04/24 02:29:12;;;;;;;16.20;13.30;;;;;;;8.10;74.27;98609.38;5071927;28;20040;-82
2022/04/24 02:31:37;;;;;;;15.77;12.82;;;;;;;8.01;74.64;98600.34;5072461;28;20649;-82
2022/04/24 02:34:02;;;;;;;17.40;14.05;;;;;;;8.07;74.93;98612.97;5053873;28;20028;-82
2022/04/24 02:36:28;;;;;;;14.73;11.75;;;;;;;7.98;75.01;98608.25;5053985;28;20021;-82
2022/04/24 02:38:53;;;;;;;19.23;13.90;;;;;;;7.95;75.31;98596.28;5071923;28;20075;-82
2022/04/24 02:41:19;;;;;;;20.75;14.15;;;;;;;7.90;75.86;98592.28;5071478;28;20090;-82
2022/04/24 02:43:44;;;;;;;16.35;13.40;;;;;;;7.88;76.66;98600.13;5071979;28;20035;-82
2022/04/24 02:46:09;;;;;;;18.55;12.95;;;;;;;7.74;76.89;98577.50;5071603;28;20591;-82
2022/04/24 02:48:35;;;;;;;16.23;12.15;;;;;;;7.79;76.59;98595.41;5071776;28;20052;-82
2022/04/24 02:51:03;;;;;;;18.17;13.00;;;;;;;7.64;77.02;98572.91;5053888;28;20029;-84
2022/04/24 02:53:28;;;;;;;15.95;11.38;;;;;;;7.63;77.38;98587.63;5071682;28;20035;-82
2022/04/24 02:55:54;;;;;;;18.52;12.65;;;;;;;7.45;78.03;98567.81;5053452;28;20107;-82
2022/04/24 02:58:21;;;;;;;17.42;12.65;;;;;;;7.51;78.31;98577.88;5053539;28;20024;-82
2022/04/24 03:00:50;;;;;;;16.45;12.48;;;;;;;7.49;78.81;98577.94;5053662;28;20028;-82
2022/04/24 03:03:19;;;;;;;13.60;11.70;;;;;;;7.42;78.72;98574.00;5053379;28;20029;-82
2022/04/24 03:05:46;;;;;;;19.55;12.85;;;;;;;7.43;78.81;98574.84;5053489;28;20035;-82
2022/04/24 03:08:12;;;;;;;14.25;12.13;;;;;;;7.40;78.54;98564.63;5053216;28;20056;-81
2022/04/24 03:10:38;;;;;;;17.40;13.32;;;;;;;7.39;78.40;98547.41;5071517;28;20495;-82
2022/04/24 03:13:03;;;;;;;14.85;11.85;;;;;;;7.35;78.39;98538.13;5053320;28;20063;-82
2022/04/24 03:15:29;;;;;;;15.93;11.90;;;;;;;7.42;78.44;98549.84;5071431;28;20033;-82
2022/04/24 03:17:54;;;;;;;16.67;11.57;;;;;;;7.33;78.68;98540.81;5053541;28;20028;-82
2022/04/24 03:20:22;;;;;;;16.63;11.10;;;;;;;7.31;78.33;98528.84;5053317;28;20036;-82
2022/04/24 03:22:47;;;;;;;15.43;12.00;;;;;;;7.38;78.70;98535.38;5071298;28;20017;-82
2022/04/24 03:25:12;;;;;;;14.77;11.07;;;;;;;7.34;78.67;98524.34;5071618;28;20414;-82
2022/04/24 03:27:39;;;;;;;18.40;12.05;;;;;;;7.39;78.77;98531.88;5071332;28;20031;-82
2022/04/24 03:30:09;;;;;;;16.15;11.30;;;;;;;7.37;79.27;98531.09;5071227;28;20029;-82
2022/04/24 03:32:35;;;;;;;15.40;10.90;;;;;;;7.36;79.12;98519.91;5071382;28;20484;-82
2022/04/24 03:35:03;;;;;;;14.52;11.68;;;;;;;7.48;78.74;98537.41;5053208;28;20270;-82
2022/04/24 03:37:28;;;;;;;17.90;13.70;;;;;;;7.48;79.47;98544.34;5053868;28;20027;-82
2022/04/24 03:39:54;;;;;;;17.10;12.25;;;;;;;7.44;79.21;98543.66;5075028;28;20024;-82
2022/04/24 03:42:20;;;;;;;20.83;13.75;;;;;;;7.47;79.23;98555.63;5057040;28;20099;-82
2022/04/24 03:44:45;;;;;;;17.15;11.98;;;;;;;7.34;79.80;98539.88;5057207;28;20036;-82
2022/04/24 03:47:11;;;;;;;15.73;11.80;;;;;;;7.38;80.14;98551.75;5056826;28;20442;-83
2022/04/24 03:49:36;;;;;;;21.15;12.57;;;;;;;7.36;80.08;98544.97;5074903;28;20043;-82
2022/04/24 03:52:02;;;;;;;19.27;13.63;;;;;;;7.30;80.37;98534.94;5074762;28;20066;-82
2022/04/24 03:54:27;;;;;;;18.90;14.65;;;;;;;7.36;80.42;98548.41;5074726;28;20464;-82
2022/04/24 03:56:52;;;;;;;21.25;13.35;;;;;;;7.32;80.67;98546.03;5075139;28;20033;-82
2022/04/24 03:59:18;;;;;;;19.45;13.68;;;;;;;7.33;80.70;98550.28;5074618;28;20056;-82
2022/04/24 04:01:43;;;;;;;19.42;13.70;;;;;;;7.40;80.37;98555.09;5056714;28;20482;-82
2022/04/24 04:04:09;;;;;;;19.50;13.55;;;;;;;7.42;80.53;98552.44;5074439;28;20043;-82
2022/04/24 04:06:34;;;;;;;18.83;13.25;;;;;;;7.46;80.50;98549.63;5074454;28;20028;-82
2022/04/24 04:08:59;;;;;;;18.35;12.60;;;;;;;7.52;80.19;98551.03;5074492;28;20040;-82
2022/04/24 04:11:26;;;;;;;15.63;12.05;;;;;;;7.69;79.66;98555.34;5074354;28;20061;-82
2022/04/24 04:13:52;;;;;;;15.63;11.95;;;;;;;7.77;79.08;98548.00;5074284;28;20079;-82
2022/04/24 04:16:17;;;;;;;15.68;11.50;;;;;;;8.05;77.99;98556.91;5074239;28;20060;-82
2022/04/24 04:18:42;;;;;;;14.43;11.02;;;;;;;8.15;77.07;98560.69;5056353;28;20421;-82
2022/04/24 04:21:08;;;;;;;14.07;11.25;;;;;;;8.17;76.35;98556.22;5074018;28;20024;-82
2022/04/24 04:23:33;;;;;;;14.32;11.32;;;;;;;8.21;75.60;98550.78;5074420;28;20529;-82
2022/04/24 04:25:59;;;;;;;17.38;10.98;;;;;;;8.24;74.89;98550.63;5074260;28;20435;-82
2022/04/24 04:28:24;;;;;;;14.27;10.65;;;;;;;8.40;74.57;98548.06;5073997;28;20031;-82
2022/04/24 04:30:50;;;;;;;14.95;9.90;;;;;;;8.55;73.52;98559.34;5074191;28;20025;-82
2022/04/24 04:33:15;;;;;;;14.10;9.85;;;;;;;8.69;72.81;98551.66;5073796;28;20078;-82
2022/04/24 04:35:40;;;;;;;11.90;8.63;;;;;;;8.83;72.14;98555.22;5055911;28;20025;-82
2022/04/24 04:38:06;;;;;;;11.50;9.13;;;;;;;8.99;71.55;98556.00;5073896;28;20067;-82
2022/04/24 04:40:31;;;;;;;11.05;8.68;;;;;;;9.17;70.48;98554.94;5073892;28;20089;-82
2022/04/24 04:42:57;;;;;;;11.88;10.05;;;;;;;9.40;69.75;98555.38;5073766;28;20068;-82
2022/04/24 04:45:24;;;;;;;13.63;9.95;;;;;;;9.79;68.74;98551.31;5073585;28;20041;-82
2022/04/24 04:47:50;;;;;;;12.15;9.57;;;;;;;10.71;65.89;98547.22;5055709;28;20031;-83
2022/04/24 04:50:16;;;;;;;11.55;9.35;;;;;;;12.05;60.55;98552.16;5073242;28;20472;-82
2022/04/24 04:52:41;;;;;;;11.63;8.98;;;;;;;12.57;57.20;98558.88;5073684;28;20020;-82
2022/04/24 04:55:07;;;;;;;11.88;9.32;;;;;;;12.70;56.77;98546.59;5073822;28;20039;-83
2022/04/24 04:57:32;;;;;;;13.20;9.20;;;;;;;13.05;55.02;98548.38;5073520;28;20028;-82
2022/04/24 04:59:58;;;;;;;11.95;8.20;;;;;;;13.42;53.43;98543.03;5055810;28;20115;-83
2022/04/24 05:02:23;;;;;;;11.43;7.88;;;;;;;14.03;52.59;98569.75;5073705;28;20516;-82
2022/04/24 05:04:49;;;;;;;11.75;8.32;;;;;;;14.65;50.70;98568.34;5073495;28;20032;-83
2022/04/24 05:07:14;;;;;;;9.95;7.82;;;;;;;15.48;47.22;98554.50;5055144;28;20451;-82
2022/04/24 05:09:40;;;;;;;8.63;7.60;;;;;;;16.60;43.89;98555.34;5073385;28;20025;-83
2022/04/24 05:12:10;;;;;;;11.07;7.80;;;;;;;17.10;42.19;98563.16;5055386;28;20025;-83
2022/04/24 05:14:35;;;;;;;10.32;7.35;;;;;;;16.71;42.51;98561.31;5055292;28;20392;-83
2022/04/24 05:17:01;;;;;;;11.70;7.15;;;;;;;16.49;43.58;98574.72;5055236;28;20077;-83
2022/04/24 05:19:26;;;;;;;10.65;7.78;;;;;;;15.93;43.93;98557.69;5054870;28;20392;-83
2022/04/24 05:21:52;;;;;;;9.63;7.07;;;;;;;15.95;44.63;98571.50;5073088;28;20039;-83
2022/04/24 05:24:18;;;;;;;10.30;7.45;;;;;;;15.90;43.79;98554.47;5072983;28;20033;-83
2022/04/24 05:26:44;;;;;;;8.52;6.75;;;;;;;16.90;42.97;98557.91;5054999;28;20035;-82
2022/04/24 05:29:10;;;;;;;11.30;6.78;;;;;;;18.34;39.92;98564.78;5055023;28;20020;-82
2022/04/24 05:31:35;;;;;;;11.50;7.78;;;;;;;18.92;37.72;98561.81;5072885;28;20027;-82
2022/04/24 05:34:01;;;;;;;9.40;6.57;;;;;;;18.11;38.64;98556.44;5054853;28;20128;-82
2022/04/24 05:36:26;;;;;;;11.82;8.10;;;;;;;17.57;40.05;98550.06;5072512;28;20032;-82
2022/04/24 05:38:51;;;;;;;9.35;6.80;;;;;;;17.26;40.79;98544.19;5054957;28;20052;-82
2022/04/24 05:41:17;;;;;;;9.40;7.20;;;;;;;17.14;41.39;98540.88;5072828;28;20029;-82
2022/04/24 05:43:42;;;;;;;9.32;6.18;;;;;;;17.65;40.02;98540.47;5072805;28;20036;-82
2022/04/24 05:46:08;;;;;;;7.40;5.53;;;;;;;19.02;37.68;98538.78;5072616;28;20456;-82
2022/04/24 05:48:33;;;;;;;7.10;5.75;;;;;;;19.95;34.79;98536.44;5072450;28;20069;-82
2022/04/24 05:51:00;;;;;;;8.82;6.00;;;;;;;19.58;35.22;98542.00;5072458;28;20029;-82
2022/04/24 05:53:25;;;;;;;8.90;5.22;;;;;;;18.89;36.54;98555.00;5072428;28;20024;-82
2022/04/24 05:55:51;;;;;;;8.13;6.00;;;;;;;18.44;37.31;98544.47;5072582;28;20028;-83
2022/04/24 05:58:16;;;;;;;6.78;5.00;;;;;;;18.66;38.13;98543.19;5072286;28;20035;-82
2022/04/24 06:00:41;;;;;;;8.88;5.85;;;;;;;18.94;36.66;98546.63;5053842;28;20029;-82
2022/04/24 06:03:07;;;;;;;7.65;6.03;;;;;;;19.89;35.30;98531.81;5072363;28;20067;-82
2022/04/24 06:05:32;;;;;;;8.35;5.72;;;;;;;21.12;32.56;98523.19;5071954;28;20502;-82
2022/04/24 06:07:58;;;;;;;11.48;8.10;;;;;;;21.25;32.19;98530.63;5054367;28;20039;-83
2022/04/24 06:10:23;;;;;;;9.32;6.30;;;;;;;20.32;33.17;98537.94;5054086;28;20059;-82
2022/04/24 06:12:51;;;;;;;7.40;6.32;;;;;;;19.53;34.44;98515.22;5072329;28;20027;-81
2022/04/24 06:15:21;;;;;;;12.13;7.90;;;;;;;19.22;35.21;98515.69;5054092;28;20040;-82
2022/04/24 06:17:49;;;;;;;17.02;11.68;;;;;;;20.14;34.12;98525.66;5072137;28;20059;-82
2022/04/24 06:20:16;;;;;;;14.88;11.20;;;;;;;21.85;31.84;98524.06;5071698;28;20032;-82
2022/04/24 06:22:46;;;;;;;12.18;7.05;;;;;;;21.83;31.01;98520.78;5054168;28;20025;-82
2022/04/24 06:25:22;;;;;;;7.15;5.85;;;;;;;21.07;31.84;98529.94;5054090;28;20056;-82
2022/04/24 06:27:49;;;;;;;7.55;6.60;;;;;;;20.84;32.77;98517.38;5071963;28;20021;-84
2022/04/24 06:30:16;;;;;;;6.90;5.47;;;;;;;21.68;31.79;98515.34;5053779;28;20043;-82
2022/04/24 06:32:42;;;;;;;13.15;7.90;;;;;;;24.58;28.69;98496.50;5072192;28;20108;-82
2022/04/24 06:35:10;;;;;;;10.82;7.00;;;;;;;26.52;26.25;98497.59;5072058;28;20029;-82
2022/04/24 06:37:39;;;;;;;9.48;6.97;;;;;;;27.38;25.43;98501.38;5071746;28;20021;-83
2022/04/24 06:40:07;;;;;;;14.03;8.60;;;;;;;29.08;23.42;98503.59;5071947;28;20111;-83
2022/04/24 06:42:33;;;;;;;11.10;7.53;;;;;;;28.98;22.44;98499.75;5071699;28;20086;-83
2022/04/24 06:44:58;;;;;;;12.48;7.85;;;;;;;27.89;23.33;98498.00;5072035;28;20379;-83
2022/04/24 06:47:24;;;;;;;12.35;7.93;;;;;;;27.05;24.81;98503.03;5071675;28;20040;-83
2022/04/24 06:49:49;;;;;;;8.95;6.43;;;;;;;27.72;24.74;98495.75;5071919;28;20029;-82
2022/04/24 06:52:15;;;;;;;7.85;6.10;;;;;;;27.42;23.48;98481.22;5053853;28;20034;-83
2022/04/24 06:54:40;;;;;;;7.90;5.63;;;;;;;28.39;22.65;98490.22;5071656;28;20017;-83
2022/04/24 06:57:05;;;;;;;9.00;5.75;;;;;;;30.14;20.87;98476.75;5072034;28;20035;-83
2022/04/24 06:59:31;;;;;;;7.57;6.03;;;;;;;30.87;19.49;98475.75;5071399;28;20684;-84
2022/04/24 07:01:56;;;;;;;10.55;6.80;;;;;;;32.13;18.64;98465.41;5071665;28;20035;-83
2022/04/24 07:04:22;;;;;;;11.95;7.15;;;;;;;33.40;18.27;98450.59;5071636;28;20637;-83
2022/04/24 07:06:47;;;;;;;8.13;6.32;;;;;;;32.62;18.21;98463.94;5071660;28;20060;-83
2022/04/24 07:09:12;;;;;;;7.45;5.90;;;;;;;30.13;20.07;98454.44;5053810;28;20025;-83
2022/04/24 07:11:39;;;;;;;7.63;6.15;;;;;;;30.69;20.10;98450.56;5053349;28;20508;-83
2022/04/24 07:14:05;;;;;;;9.15;6.50;;;;;;;31.07;19.80;98446.66;5074849;28;20024;-83
2022/04/24 07:16:31;;;;;;;11.48;6.63;;;;;;;31.05;20.40;98448.75;5087486;28;20032;-83
2022/04/24 07:18:56;;;;;;;10.07;6.45;;;;;;;33.14;18.73;98442.13;5095981;28;20020;-83
2022/04/24 07:21:22;;;;;;;7.53;6.70;;;;;;;33.99;17.04;98432.78;5076123;28;20115;-83
2022/04/24 07:23:47;;;;;;;7.88;6.60;;;;;;;33.59;17.71;98443.06;5077717;28;20031;-83
2022/04/24 07:26:13;;;;;;;8.07;6.05;;;;;;;32.93;17.42;98424.00;5095736;28;20031;-84
2022/04/24 07:28:38;;;;;;;9.98;6.28;;;;;;;32.46;17.44;98427.78;5095834;28;20060;-83
2022/04/24 07:31:03;;;;;;;7.47;6.25;;;;;;;32.20;17.82;98426.50;5077313;28;20400;-83
2022/04/24 07:33:29;;;;;;;9.75;5.90;;;;;;;31.24;18.38;98438.72;5095373;28;20024;-83
2022/04/24 07:35:54;;;;;;;12.23;6.43;;;;;;;30.83;18.84;98426.19;5095635;28;20110;-82
2022/04/24 07:38:20;;;;;;;9.50;6.70;;;;;;;31.22;18.75;98416.59;5095305;28;20377;-82
2022/04/24 07:40:45;;;;;;;10.35;7.03;;;;;;;28.89;20.19;98423.31;5095384;28;20024;-82
2022/04/24 07:43:13;;;;;;;13.13;7.13;;;;;;;30.53;19.52;98421.66;5095295;28;20032;-82
2022/04/24 07:45:47;;;;;;;7.57;5.82;;;;;;;30.95;18.99;98433.19;5094912;28;20105;-82
2022/04/24 07:48:13;;;;;;;7.00;5.07;;;;;;;29.80;19.08;98418.09;5095268;28;20115;-82
2022/04/24 07:50:42;;;;;;;6.15;4.32;;;;;;;28.88;20.19;98413.63;5095121;28;20442;-82
2022/04/24 07:53:08;;;;;;;9.73;5.63;;;;;;;28.58;21.27;98419.63;5095130;28;20432;-82
2022/04/24 07:55:34;;;;;;;9.35;4.70;;;;;;;26.50;22.09;98416.88;5094924;28;20032;-82
2022/04/24 07:58:00;;;;;;;7.32;5.00;;;;;;;25.06;24.56;98415.97;5094969;28;20380;-82
2022/04/24 08:00:33;;;;;;;8.80;6.40;;;;;;;27.72;22.90;98422.72;5094875;28;20111;-82
2022/04/24 08:03:04;;;;;;;8.20;6.30;;;;;;;27.99;22.12;98415.44;5095068;28;20380;-82
2022/04/24 08:05:30;;;;;;;9.63;6.25;;;;;;;26.24;23.85;98425.63;5094793;28;20024;-83
2022/04/24 08:07:58;;;;;;;10.15;6.32;;;;;;;24.63;25.87;98429.38;5076631;28;20028;-83
2022/04/24 08:10:26;;;;;;;9.93;7.55;;;;;;;23.39;26.86;98421.34;5094475;28;20047;-83
2022/04/24 08:12:52;;;;;;;5.55;4.55;;;;;;;22.28;26.50;98437.06;5088641;28;20031;-82
2022/04/24 08:15:18;;;;;;;8.07;3.78;;;;;;;22.26;26.62;98431.94;5094894;28;20091;-82
2022/04/24 08:17:43;;;;;;;7.65;4.80;;;;;;;21.39;26.71;98420.53;5094533;28;20027;-83
2022/04/24 08:20:11;;;;;;;5.68;4.22;;;;;;;20.17;28.35;98414.25;5076505;28;20373;-83
2022/04/24 08:22:48;;;;;;;7.47;4.93;;;;;;;19.33;30.22;98412.47;5094193;28;20030;-82
2022/04/24 08:25:16;;;;;;;6.35;5.22;;;;;;;19.36;30.65;98413.97;5094049;28;20156;-82
2022/04/24 08:27:42;;;;;;;5.93;4.07;;;;;;;19.05;30.40;98437.38;5066885;28;20097;-82
2022/04/24 08:30:10;;;;;;;8.82;5.43;;;;;;;18.40;31.78;98456.91;5062100;28;20036;-82
2022/04/24 08:32:37;;;;;;;6.93;4.68;;;;;;;17.97;33.13;98441.81;5028240;28;20048;-82
2022/04/24 08:35:04;;;;;;;5.93;4.78;;;;;;;17.87;33.81;98433.16;5031840;28;20037;-82
2022/04/24 08:37:29;;;;;;;7.55;5.47;;;;;;;17.66;35.63;98441.28;5031331;28;20038;-82
2022/04/24 08:39:55;;;;;;;11.15;6.55;;;;;;;17.36;36.79;98440.56;5031661;28;20029;-82
2022/04/24 08:42:23;;;;;;;7.15;5.50;;;;;;;17.16;36.94;98441.59;5014879;28;20021;-82
2022/04/24 08:44:50;;;;;;;6.57;5.25;;;;;;;16.96;37.45;98435.53;5011607;28;20061;-82
2022/04/24 08:47:16;;;;;;;5.53;4.95;;;;;;;16.83;36.68;98442.91;5011637;28;20124;-81
2022/04/24 08:49:42;;;;;;;8.35;6.82;;;;;;;16.78;37.29;98448.56;5011452;28;20100;-82
2022/04/24 08:52:11;;;;;;;9.57;6.63;;;;;;;16.50;37.37;98452.00;5011460;28;20026;-82
2022/04/24 08:54:39;;;;;;;13.45;8.30;;;;;;;16.32;38.08;98459.75;4994817;28;20386;-82
2022/04/24 08:57:04;;;;;;;7.68;6.60;;;;;;;16.14;38.49;98438.59;5011547;28;20049;-82
2022/04/24 08:59:30;;;;;;;6.40;5.80;;;;;;;16.08;39.35;98445.19;5011396;28;20471;-81
2022/04/24 09:01:58;;;;;;;10.65;5.93;;;;;;;15.94;39.14;98446.41;5011347;28;20029;-82
2022/04/24 09:04:27;;;;;;;8.30;5.50;;;;;;;15.85;39.19;98449.03;5011047;28;20499;-82
2022/04/24 09:06:57;;;;;;;8.52;6.10;;;;;;;15.75;38.71;98459.47;5011216;28;20484;-82
2022/04/24 09:09:23;;;;;;;8.98;6.63;;;;;;;15.59;38.23;98433.72;5025499;28;20503;-82
2022/04/24 09:11:49;;;;;;;12.38;7.80;;;;;;;15.70;38.41;98438.06;5055014;28;20048;-82
2022/04/24 09:14:15;;;;;;;8.68;7.18;;;;;;;15.85;38.12;98452.47;5073337;28;20107;-80
2022/04/24 09:16:49;;;;;;;8.73;5.57;;;;;;;15.82;38.86;98444.84;5073459;28;20036;-82
2022/04/24 09:19:20;;;;;;;15.13;7.63;;;;;;;15.73;39.30;98444.84;5073088;28;20031;-82
2022/04/24 09:21:46;;;;;;;9.68;6.15;;;;;;;15.60;39.34;98432.75;5072975;28;20037;-82
2022/04/24 09:24:13;;;;;;;8.15;6.43;;;;;;;15.49;39.17;98448.56;5055363;28;20483;-83
2022/04/24 09:26:49;;;;;;;8.15;5.53;;;;;;;15.37;39.10;98433.88;5072919;28;20518;-79
2022/04/24 09:29:14;;;;;;;9.70;6.80;;;;;;;15.33;39.59;98443.81;5073101;28;20480;-83
2022/04/24 09:31:53;;;;;;;11.98;7.50;;;;;;;15.19;39.73;98436.28;5054705;28;20039;-83
2022/04/24 09:34:20;;;;;;;8.60;6.40;;;;;;;15.14;40.24;98425.38;5072978;28;20541;-82
2022/04/24 09:37:00;;;;;;;13.18;8.75;;;;;;;15.07;40.66;98422.41;5090530;28;20111;-82
2022/04/24 09:39:29;;;;;;;9.48;6.90;;;;;;;15.07;40.53;98413.72;5075048;28;20024;-83
2022/04/24 09:42:11;;;;;;;15.77;10.25;;;;;;;15.01;41.27;98424.75;5092946;28;20038;-83
2022/04/24 09:44:44;;;;;;;15.55;10.75;;;;;;;14.97;41.10;98430.22;5092813;28;20426;-83
2022/04/24 09:47:10;;;;;;;12.50;9.38;;;;;;;14.95;41.37;98429.53;5074896;28;20028;-83
2022/04/24 09:49:41;;;;;;;11.18;8.35;;;;;;;14.89;41.61;98413.50;5092989;28;20107;-83
2022/04/24 09:52:12;;;;;;;11.00;8.45;;;;;;;14.90;41.76;98421.22;5093170;28;20081;-83
2022/04/24 09:54:44;;;;;;;15.35;8.43;;;;;;;14.86;42.42;98408.50;5092608;28;20024;-83
2022/04/24 09:57:10;;;;;;;10.77;7.85;;;;;;;14.94;42.83;98422.63;5074765;28;20088;-83
2022/04/24 09:59:38;;;;;;;11.35;8.25;;;;;;;14.89;42.86;98405.63;5074501;28;20118;-83
2022/04/24 10:02:05;;;;;;;13.10;8.43;;;;;;;14.95;43.16;98416.41;5092769;28;20036;-84
2022/04/24 10:04:38;;;;;;;8.57;7.15;;;;;;;14.77;43.71;98414.50;5074236;28;20034;-83
2022/04/24 10:07:06;;;;;;;17.10;10.18;;;;;;;14.61;44.27;98414.94;5074389;28;20024;-83
2022/04/24 10:09:34;;;;;;;12.63;8.40;;;;;;;14.52;44.58;98406.06;5089618;28;20028;-84
2022/04/24 10:12:08;;;;;;;17.83;10.57;;;;;;;14.52;44.80;98406.06;5074828;28;20368;-83
2022/04/24 10:14:42;;;;;;;11.73;8.27;;;;;;;14.44;45.10;98387.50;5074217;28;20069;-84
2022/04/24 10:17:28;;;;;;;11.57;8.15;;;;;;;14.55;44.73;98381.41;5074420;28;20040;-84
2022/04/24 10:20:08;;;;;;;13.85;8.73;;;;;;;14.60;44.72;98385.28;5074532;28;20028;-83
2022/04/24 10:22:47;;;;;;;9.55;7.93;;;;;;;14.77;44.40;98377.81;5074246;28;20065;-84
2022/04/24 10:25:17;;;;;;;11.52;8.02;;;;;;;14.73;44.59;98359.72;5074495;28;20506;-84
2022/04/24 10:27:44;;;;;;;9.07;7.63;;;;;;;14.73;44.52;98351.84;5092179;28;20528;-83
2022/04/24 10:30:22;;;;;;;14.85;10.63;;;;;;;14.70;43.95;98352.09;5074154;28;20023;-83
2022/04/24 10:32:48;;;;;;;11.32;8.10;;;;;;;14.66;43.59;98347.25;5092225;28;20031;-83
2022/04/24 10:35:19;;;;;;;11.10;7.75;;;;;;;14.73;43.41;98356.28;5086824;28;20028;-83
2022/04/24 10:37:47;;;;;;;13.98;11.82;;;;;;;14.76;43.39;98356.03;5071849;28;20376;-82
2022/04/24 10:40:16;;;;;;;12.35;9.40;;;;;;;14.84;42.97;98353.59;5054105;28;20123;-84
2022/04/24 10:42:43;;;;;;;13.82;8.50;;;;;;;14.84;42.20;98347.53;5071771;28;20033;-84
2022/04/24 10:45:19;;;;;;;18.40;12.35;;;;;;;14.81;42.72;98339.91;5068766;28;20065;-83
2022/04/24 10:47:52;;;;;;;10.40;8.77;;;;;;;14.90;42.75;98358.28;5091796;28;20115;-84
2022/04/24 10:50:18;;;;;;;11.77;7.85;;;;;;;14.89;42.61;98353.19;5073867;28;20356;-84
2022/04/24 10:52:45;;;;;;;30.38;20.67;;;;;;;14.89;42.69;98346.16;5073768;28;20043;-85
2022/04/24 10:55:16;;;;;;;27.90;19.70;;;;;;;14.78;42.94;98346.22;5074025;28;20021;-84
2022/04/24 10:57:44;;;;;;;18.02;11.48;;;;;;;14.79;43.33;98336.56;5091903;28;20487;-84
2022/04/24 11:00:26;;;;;;;16.20;10.95;;;;;;;14.81;43.31;98335.50;5070886;28;20017;-84
2022/04/24 11:02:52;;;;;;;15.55;11.45;;;;;;;14.85;43.53;98330.81;5073761;28;20066;-84
2022/04/24 11:05:20;;;;;;;34.67;20.48;;;;;;;14.85;43.51;98320.34;5091871;28;20024;-82
2022/04/24 11:07:46;;;;;;;58.00;32.55;;;;;;;15.15;43.32;98328.19;5091596;28;20036;-84
2022/04/24 11:10:12;;;;;;;18.25;12.40;;;;;;;15.33;42.63;98317.06;5073717;28;20054;-83
2022/04/24 11:12:38;;;;;;;18.63;13.57;;;;;;;15.44;41.97;98316.94;5073844;28;20024;-83
2022/04/24 11:15:05;;;;;;;15.18;12.52;;;;;;;15.53;41.84;98313.50;5073616;28;20049;-83
2022/04/24 11:17:30;;;;;;;13.60;10.32;;;;;;;15.60;42.05;98319.88;5091800;28;20082;-83
2022/04/24 11:20:09;;;;;;;14.52;10.60;;;;;;;15.64;42.05;98307.34;5073274;28;20028;-83
2022/04/24 11:22:55;;;;;;;14.02;9.40;;;;;;;15.68;41.40;98314.81;5073550;28;20077;-83
2022/04/24 11:25:24;;;;;;;13.85;8.05;;;;;;;15.62;41.62;98310.06;5091816;28;20038;-84